Time;durP1;ratioP1;P1;durP2;ratioP2;P2;SDS_P1;SDS_P2;PMS_P1;PMS_P2;Temp;Humidity;BMP_temperature;BMP_pressure;BME280_temperature;BME280_humidity;BME280_pressure;Samples;Min_cycle;Max_cycle;Signal;HPM_P1;HPM_P2
2022/01/02 00:00:09;;;;;;;;;;;17.40;54.60;;;;;;5010151;28;19913;-93
2022/01/02 00:02:35;;;;;;;;;;;17.40;54.50;;;;;;5009486;28;20012;-93
2022/01/02 00:05:02;;;;;;;;;;;17.40;54.50;;;;;;5007518;28;19914;-92
2022/01/02 00:07:29;;;;;;;;;;;17.40;54.40;;;;;;5007594;28;19924;-93
2022/01/02 00:09:56;;;;;;;;;;;17.50;54.50;;;;;;5025565;28;19917;-93
2022/01/02 00:12:23;;;;;;;;;;;17.50;54.20;;;;;;5002209;28;19922;-94
2022/01/02 00:14:50;;;;;;;;;;;17.50;54.10;;;;;;5025404;28;20257;-92
2022/01/02 00:17:21;;;;;;;;;;;17.60;54.00;;;;;;5011935;28;19925;-94
2022/01/02 00:19:52;;;;;;;;;;;17.60;53.90;;;;;;5012631;28;20381;-93
2022/01/02 00:22:19;;;;;;;;;;;17.60;53.70;;;;;;5004748;28;19929;-93
2022/01/02 00:24:45;;;;;;;;;;;17.70;53.60;;;;;;5014670;28;19913;-93
2022/01/02 00:27:13;;;;;;;;;;;17.70;53.60;;;;;;5024716;28;19925;-94
2022/01/02 00:29:39;;;;;;;;;;;17.70;53.50;;;;;;5015473;28;19941;-94
2022/01/02 00:32:07;;;;;;;;;;;17.70;53.40;;;;;;5030055;28;19987;-92
2022/01/02 00:34:34;;;;;;;;;;;17.70;53.40;;;;;;5034790;28;19909;-92
2022/01/02 00:37:00;;;;;;;;;;;17.70;53.20;;;;;;5034772;28;19921;-93
2022/01/02 00:39:25;;;;;;;;;;;17.70;53.20;;;;;;5009598;28;19909;-93
2022/01/02 00:41:55;;;;;;;;;;;17.70;53.10;;;;;;5004758;28;19914;-88
2022/01/02 00:44:31;;;;;;;;;;;17.70;53.20;;;;;;5003736;28;19918;-92
2022/01/02 00:47:12;;;;;;;;;;;17.80;53.20;;;;;;4997389;28;19956;-92
2022/01/02 00:49:39;;;;;;;;;;;17.80;53.00;;;;;;5007957;28;19914;-92
2022/01/02 00:52:11;;;;;;;;;;;17.80;52.90;;;;;;5016422;28;19921;-93
2022/01/02 00:54:39;;;;;;;;;;;17.70;52.90;;;;;;5011530;28;19917;-93
2022/01/02 00:57:05;;;;;;;;;;;17.70;52.80;;;;;;4997568;28;19917;-93
2022/01/02 00:59:37;;;;;;;;;;;17.80;52.80;;;;;;5015325;28;19918;-94
2022/01/02 01:02:03;;;;;;;;;;;17.80;52.70;;;;;;5007773;28;19925;-92
2022/01/02 01:04:30;;;;;;;;;;;17.80;52.60;;;;;;5016277;28;19991;-94
2022/01/02 01:06:58;;;;;;;;;;;17.90;52.60;;;;;;5012971;28;19920;-93
2022/01/02 01:09:26;;;;;;;;;;;17.90;52.40;;;;;;5012508;28;19920;-92
2022/01/02 01:11:53;;;;;;;;;;;18.00;52.20;;;;;;5004719;28;20272;-93
2022/01/02 01:14:18;;;;;;;;;;;18.00;52.10;;;;;;5018902;28;19917;-92
2022/01/02 01:16:44;;;;;;;;;;;18.00;52.10;;;;;;5020439;28;19923;-94
2022/01/02 01:19:09;;;;;;;;;;;18.00;51.80;;;;;;5009479;28;19921;-92
2022/01/02 01:21:35;;;;;;;;;;;18.00;52.00;;;;;;5012613;28;19909;-88
2022/01/02 01:24:00;;;;;;;;;;;18.10;52.00;;;;;;5002072;28;19932;-88
2022/01/02 01:26:26;;;;;;;;;;;18.20;51.90;;;;;;5012832;28;20634;-90
2022/01/02 01:28:52;;;;;;;;;;;18.10;51.70;;;;;;5017150;28;19918;-89
2022/01/02 01:31:17;;;;;;;;;;;18.20;51.90;;;;;;5019740;28;19914;-93
2022/01/02 01:33:43;;;;;;;;;;;18.20;51.90;;;;;;5020393;28;20276;-93
2022/01/02 01:36:08;;;;;;;;;;;18.20;51.60;;;;;;5020077;28;19918;-94
2022/01/02 01:38:34;;;;;;;;;;;18.20;51.80;;;;;;5015729;28;19925;-93
2022/01/02 01:41:14;;;;;;;;;;;18.20;51.60;;;;;;5009923;28;20525;-93
2022/01/02 01:43:40;;;;;;;;;;;18.30;51.80;;;;;;4996618;28;19921;-93
2022/01/02 01:46:06;;;;;;;;;;;18.20;51.70;;;;;;5005093;28;19925;-93
2022/01/02 01:48:35;;;;;;;;;;;18.30;51.50;;;;;;5010793;28;19917;-94
2022/01/02 01:51:01;;;;;;;;;;;18.30;51.60;;;;;;5015535;28;19918;-93
2022/01/02 01:53:26;;;;;;;;;;;18.30;51.60;;;;;;5008079;28;20354;-93
2022/01/02 01:55:55;;;;;;;;;;;18.30;51.60;;;;;;5012379;28;20408;-94
2022/01/02 01:58:20;;;;;;;;;;;18.30;51.60;;;;;;5006280;28;19956;-93
2022/01/02 02:00:46;;;;;;;;;;;18.30;51.70;;;;;;5019960;28;20273;-91
2022/01/02 02:03:11;;;;;;;;;;;18.30;51.60;;;;;;5004285;28;19996;-93
2022/01/02 02:05:37;;;;;;;;;;;18.30;51.80;;;;;;5012547;28;19918;-93
2022/01/02 02:08:03;;;;;;;;;;;18.30;51.80;;;;;;5007365;28;19970;-93
2022/01/02 02:10:35;;;;;;;;;;;18.30;52.00;;;;;;5014669;28;20295;-93
2022/01/02 02:13:02;;;;;;;;;;;18.40;52.00;;;;;;5011993;28;19921;-93
2022/01/02 02:15:27;;;;;;;;;;;18.40;51.80;;;;;;5021462;28;19921;-92
2022/01/02 02:17:53;;;;;;;;;;;18.50;52.00;;;;;;5022095;28;19918;-93
2022/01/02 02:20:20;;;;;;;;;;;18.40;51.30;;;;;;5010578;28;19914;-93
2022/01/02 02:22:47;;;;;;;;;;;18.50;51.10;;;;;;4989298;28;19948;-93
2022/01/02 02:25:14;;;;;;;;;;;18.40;50.80;;;;;;5002310;28;19914;-92
2022/01/02 02:27:40;;;;;;;;;;;18.40;51.10;;;;;;5028041;28;19921;-95
2022/01/02 02:30:07;;;;;;;;;;;18.40;51.10;;;;;;5027352;28;19921;-96
2022/01/02 02:32:32;;;;;;;;;;;18.40;51.30;;;;;;5004483;28;19921;-94
2022/01/02 02:34:58;;;;;;;;;;;18.40;51.30;;;;;;4996825;28;19918;-94
2022/01/02 02:37:25;;;;;;;;;;;18.40;51.80;;;;;;5006862;28;19928;-94
2022/01/02 02:39:51;;;;;;;;;;;18.30;52.00;;;;;;5004169;28;19968;-95
2022/01/02 02:42:31;;;;;;;;;;;18.30;52.30;;;;;;5004506;28;19925;-95
2022/01/02 02:48:59;;;;;;;;;;;18.20;52.80;;;;;;5006183;28;19921;-94
2022/01/02 02:50:35;;;;;;;;;;;17.90;54.00;;;;;;5024838;28;19917;-94
2022/01/02 02:53:01;;;;;;;;;;;17.80;54.60;;;;;;5007133;28;19918;-95
2022/01/02 02:55:31;;;;;;;;;;;17.80;54.90;;;;;;5006794;28;19909;-95
2022/01/02 02:58:08;;;;;;;;;;;17.70;55.40;;;;;;5004493;28;19968;-94
2022/01/02 03:00:34;;;;;;;;;;;17.60;56.00;;;;;;5012070;28;20657;-93
2022/01/02 03:02:59;;;;;;;;;;;17.60;56.60;;;;;;5012233;28;19989;-95
2022/01/02 03:05:25;;;;;;;;;;;17.50;57.70;;;;;;5024740;28;19910;-96
2022/01/02 03:07:50;;;;;;;;;;;17.40;58.30;;;;;;5023346;28;19924;-94
2022/01/02 03:10:17;;;;;;;;;;;17.30;58.90;;;;;;5023969;28;19972;-95
2022/01/02 03:12:42;;;;;;;;;;;17.30;59.60;;;;;;5023922;28;20008;-96
2022/01/02 03:15:08;;;;;;;;;;;17.20;60.20;;;;;;4999067;28;19956;-96
2022/01/02 03:17:33;;;;;;;;;;;17.20;60.50;;;;;;4987278;28;19918;-95
2022/01/02 03:19:59;;;;;;;;;;;17.10;60.70;;;;;;4987611;28;19937;-96
2022/01/02 03:22:24;;;;;;;;;;;17.10;61.40;;;;;;4987472;28;19921;-94
2022/01/02 03:24:52;;;;;;;;;;;17.10;61.20;;;;;;5017412;28;19921;-94
2022/01/02 03:27:17;;;;;;;;;;;17.10;61.50;;;;;;5008098;28;19917;-94
2022/01/02 03:29:43;;;;;;;;;;;17.10;61.70;;;;;;5009971;28;19916;-95
2022/01/02 03:32:08;;;;;;;;;;;17.10;61.90;;;;;;5009227;28;19921;-96
2022/01/02 03:34:34;;;;;;;;;;;17.00;62.00;;;;;;4993970;28;19941;-91
2022/01/02 03:37:00;;;;;;;;;;;17.00;62.10;;;;;;4988526;28;19944;-92
2022/01/02 03:39:25;;;;;;;;;;;16.90;62.30;;;;;;4989145;28;19963;-96
2022/01/02 03:41:51;;;;;;;;;;;16.90;62.60;;;;;;5003711;28;20352;-92
2022/01/02 03:44:17;;;;;;;;;;;16.90;62.60;;;;;;5008956;28;19965;-96
2022/01/02 03:46:42;;;;;;;;;;;16.90;62.80;;;;;;5008428;28;20256;-96
2022/01/02 03:49:08;;;;;;;;;;;16.90;62.90;;;;;;5008590;28;19909;-95
2022/01/02 03:51:33;;;;;;;;;;;16.90;63.00;;;;;;4989081;28;19920;-94
2022/01/02 03:53:59;;;;;;;;;;;16.90;63.10;;;;;;4997619;28;20422;-94
2022/01/02 03:56:24;;;;;;;;;;;16.90;63.20;;;;;;5005974;28;19920;-94
2022/01/02 03:58:49;;;;;;;;;;;16.90;63.10;;;;;;5008256;28;20001;-94
2022/01/02 04:01:15;;;;;;;;;;;16.90;63.20;;;;;;4989332;28;19914;-96
2022/01/02 04:03:40;;;;;;;;;;;16.80;63.20;;;;;;5001527;28;19985;-93
2022/01/02 04:06:06;;;;;;;;;;;16.80;63.20;;;;;;4986684;28;20130;-94
2022/01/02 04:08:31;;;;;;;;;;;16.80;63.40;;;;;;5015145;28;19952;-95
2022/01/02 04:10:57;;;;;;;;;;;16.70;63.50;;;;;;5004142;28;20019;-95
2022/01/02 04:13:22;;;;;;;;;;;16.70;63.50;;;;;;5003363;28;19985;-87
2022/01/02 04:15:48;;;;;;;;;;;16.70;63.50;;;;;;4997613;28;19917;-87
2022/01/02 04:18:13;;;;;;;;;;;16.60;63.60;;;;;;4987785;28;19917;-87
2022/01/02 04:20:39;;;;;;;;;;;16.60;63.70;;;;;;5010876;28;19949;-87
2022/01/02 04:23:04;;;;;;;;;;;16.50;63.80;;;;;;4977955;28;20358;-88
2022/01/02 04:25:29;;;;;;;;;;;16.50;63.90;;;;;;4995100;28;19914;-87
2022/01/02 04:27:55;;;;;;;;;;;16.50;64.00;;;;;;4994161;28;19918;-87
2022/01/02 04:30:20;;;;;;;;;;;16.50;64.10;;;;;;4995159;28;19953;-86
2022/01/02 04:32:48;;;;;;;;;;;16.50;64.10;;;;;;4993428;28;19945;-86
2022/01/02 04:35:14;;;;;;;;;;;16.50;64.20;;;;;;4994001;28;19910;-87
2022/01/02 04:37:39;;;;;;;;;;;16.50;64.20;;;;;;4995973;28;20350;-88
2022/01/02 04:40:05;;;;;;;;;;;16.50;64.20;;;;;;4979179;28;19910;-88
2022/01/02 04:42:31;;;;;;;;;;;16.50;64.10;;;;;;5011057;28;19921;-87
2022/01/02 04:44:56;;;;;;;;;;;16.50;64.20;;;;;;4977511;28;19917;-87
2022/01/02 04:47:22;;;;;;;;;;;16.50;64.30;;;;;;4995237;28;20372;-87
2022/01/02 04:49:47;;;;;;;;;;;16.40;64.40;;;;;;4985625;28;19917;-88
2022/01/02 04:52:13;;;;;;;;;;;16.40;64.50;;;;;;5014763;28;19968;-88
2022/01/02 04:54:38;;;;;;;;;;;16.40;64.40;;;;;;5015189;28;20277;-88
2022/01/02 04:57:04;;;;;;;;;;;16.40;64.60;;;;;;4993771;28;19972;-87
2022/01/02 04:59:29;;;;;;;;;;;16.40;64.60;;;;;;5006188;28;20389;-87
2022/01/02 05:01:54;;;;;;;;;;;16.40;64.60;;;;;;4977327;28;20282;-87
2022/01/02 05:04:20;;;;;;;;;;;16.40;64.60;;;;;;4994393;28;20293;-86
2022/01/02 05:06:46;;;;;;;;;;;16.40;64.60;;;;;;4994300;28;19920;-86
2022/01/02 05:09:11;;;;;;;;;;;16.30;64.70;;;;;;4993037;28;19925;-86
2022/01/02 05:11:37;;;;;;;;;;;16.30;64.70;;;;;;5000835;28;19952;-87
2022/01/02 05:14:02;;;;;;;;;;;16.30;64.80;;;;;;4995557;28;20372;-86
2022/01/02 05:16:27;;;;;;;;;;;16.30;64.80;;;;;;5014627;28;19910;-87
2022/01/02 05:18:53;;;;;;;;;;;16.30;64.80;;;;;;5000153;28;19953;-88
2022/01/02 05:21:18;;;;;;;;;;;16.30;64.90;;;;;;5017735;28;20004;-87
2022/01/02 05:23:44;;;;;;;;;;;16.40;64.90;;;;;;4993294;28;19926;-87
2022/01/02 05:26:09;;;;;;;;;;;16.40;65.00;;;;;;4980122;28;19913;-88
2022/01/02 05:28:35;;;;;;;;;;;16.40;64.90;;;;;;4997862;28;19925;-87
2022/01/02 05:31:00;;;;;;;;;;;16.40;65.00;;;;;;4988037;28;20012;-88
2022/01/02 05:33:26;;;;;;;;;;;16.40;65.00;;;;;;5016010;28;19924;-87
2022/01/02 05:35:52;;;;;;;;;;;16.40;65.00;;;;;;5009152;28;19922;-86
2022/01/02 05:38:19;;;;;;;;;;;16.40;65.00;;;;;;4980353;28;19918;-87
2022/01/02 05:40:44;;;;;;;;;;;16.30;65.10;;;;;;4996708;28;19985;-87
2022/01/02 05:43:10;;;;;;;;;;;16.40;65.10;;;;;;4995930;28;19964;-87
2022/01/02 05:45:35;;;;;;;;;;;16.40;65.20;;;;;;4997281;28;20004;-87
2022/01/02 05:48:02;;;;;;;;;;;16.40;65.30;;;;;;4979676;28;19918;-87
2022/01/02 05:50:27;;;;;;;;;;;16.30;65.30;;;;;;4984822;28;19917;-88
2022/01/02 05:52:53;;;;;;;;;;;16.30;65.40;;;;;;5017043;28;19968;-89
2022/01/02 05:55:19;;;;;;;;;;;16.40;65.60;;;;;;5016876;28;19909;-88
2022/01/02 05:57:44;;;;;;;;;;;16.40;65.60;;;;;;5017294;28;20431;-88
2022/01/02 06:00:10;;;;;;;;;;;16.40;65.70;;;;;;4999900;28;19920;-88
2022/01/02 06:02:36;;;;;;;;;;;16.40;65.80;;;;;;5017666;28;19922;-88
2022/01/02 06:05:02;;;;;;;;;;;16.40;65.80;;;;;;4994897;28;19996;-89
2022/01/02 06:07:28;;;;;;;;;;;16.40;65.80;;;;;;4991911;28;20020;-88
2022/01/02 06:09:53;;;;;;;;;;;16.50;65.90;;;;;;5017455;28;20676;-89
2022/01/02 06:12:19;;;;;;;;;;;16.50;65.90;;;;;;5017247;28;20388;-88
2022/01/02 06:14:44;;;;;;;;;;;16.60;65.90;;;;;;4998975;28;19914;-88
2022/01/02 06:17:10;;;;;;;;;;;16.60;65.90;;;;;;4998901;28;20385;-88
2022/01/02 06:19:35;;;;;;;;;;;16.60;65.80;;;;;;4990641;28;19914;-87
2022/01/02 06:22:01;;;;;;;;;;;16.60;66.00;;;;;;4979650;28;20017;-88
2022/01/02 06:24:26;;;;;;;;;;;16.70;65.90;;;;;;4996856;28;20347;-89
2022/01/02 06:26:52;;;;;;;;;;;16.70;65.90;;;;;;4979010;28;19910;-88
2022/01/02 06:29:17;;;;;;;;;;;16.70;66.00;;;;;;4995923;28;19914;-88
2022/01/02 06:31:43;;;;;;;;;;;16.80;65.80;;;;;;4978515;28;20412;-88
2022/01/02 06:34:08;;;;;;;;;;;16.80;65.90;;;;;;4978745;28;19914;-88
2022/01/02 06:36:34;;;;;;;;;;;16.90;65.90;;;;;;4995931;28;20357;-88
2022/01/02 06:38:59;;;;;;;;;;;16.90;65.80;;;;;;5016064;28;19921;-88
2022/01/02 06:41:25;;;;;;;;;;;17.00;65.80;;;;;;5004437;28;20008;-88
2022/01/02 06:43:52;;;;;;;;;;;17.00;65.90;;;;;;5013105;28;19932;-88
2022/01/02 06:46:18;;;;;;;;;;;17.00;65.80;;;;;;5015743;28;19909;-88
2022/01/02 06:48:44;;;;;;;;;;;17.00;65.80;;;;;;5003227;28;20012;-88
2022/01/02 06:51:09;;;;;;;;;;;17.00;65.80;;;;;;5015776;28;20007;-89
2022/01/02 06:53:35;;;;;;;;;;;17.00;65.70;;;;;;5005981;28;19924;-89
2022/01/02 06:56:00;;;;;;;;;;;17.10;65.80;;;;;;4978524;28;19914;-89
2022/01/02 06:58:26;;;;;;;;;;;17.00;65.80;;;;;;4998096;28;19917;-89
2022/01/02 07:00:51;;;;;;;;;;;17.10;65.90;;;;;;5016125;28;19917;-88
2022/01/02 07:03:16;;;;;;;;;;;17.10;65.90;;;;;;5014195;28;19921;-89
2022/01/02 07:05:42;;;;;;;;;;;17.10;65.90;;;;;;5003321;28;19916;-88
2022/01/02 07:08:07;;;;;;;;;;;17.10;65.90;;;;;;4998239;28;20000;-87
2022/01/02 07:10:33;;;;;;;;;;;17.10;66.00;;;;;;4986877;28;19909;-87
2022/01/02 07:12:59;;;;;;;;;;;17.10;65.90;;;;;;4978235;28;19918;-88
2022/01/02 07:15:25;;;;;;;;;;;17.10;66.00;;;;;;4986314;28;19910;-88
2022/01/02 07:17:50;;;;;;;;;;;17.20;66.00;;;;;;4995921;28;20376;-88
2022/01/02 07:20:16;;;;;;;;;;;17.20;66.00;;;;;;4994235;28;19914;-88
2022/01/02 07:22:42;;;;;;;;;;;17.20;65.90;;;;;;4977676;28;19926;-88
2022/01/02 07:25:08;;;;;;;;;;;17.10;65.90;;;;;;4993792;28;19914;-88
2022/01/02 07:27:34;;;;;;;;;;;17.20;65.90;;;;;;5008106;28;19925;-88
2022/01/02 07:29:59;;;;;;;;;;;17.20;65.90;;;;;;5011313;28;20278;-88
2022/01/02 07:32:25;;;;;;;;;;;17.20;65.90;;;;;;4983580;28;19925;-89
2022/01/02 07:34:50;;;;;;;;;;;17.20;65.90;;;;;;4998282;28;19976;-88
2022/01/02 07:37:16;;;;;;;;;;;17.20;65.80;;;;;;5002661;28;20008;-89
2022/01/02 07:39:42;;;;;;;;;;;17.20;65.70;;;;;;4983299;28;19918;-88
2022/01/02 07:42:07;;;;;;;;;;;17.20;65.90;;;;;;4999140;28;19940;-89
2022/01/02 07:44:33;;;;;;;;;;;17.30;65.80;;;;;;4998758;28;19955;-88
2022/01/02 07:46:59;;;;;;;;;;;17.30;65.90;;;;;;5016069;28;19924;-88
2022/01/02 07:49:24;;;;;;;;;;;17.30;65.80;;;;;;4998275;28;20008;-88
2022/01/02 07:51:50;;;;;;;;;;;17.30;65.70;;;;;;5015887;28;19920;-88
2022/01/02 07:54:15;;;;;;;;;;;17.30;65.70;;;;;;5015070;28;19996;-88
2022/01/02 07:56:41;;;;;;;;;;;17.30;65.70;;;;;;4997258;28;19947;-88
2022/01/02 07:59:06;;;;;;;;;;;17.30;65.80;;;;;;5013089;28;19916;-88
2022/01/02 08:01:32;;;;;;;;;;;17.30;65.80;;;;;;5015606;28;19996;-89
2022/01/02 08:03:57;;;;;;;;;;;17.30;65.80;;;;;;5013731;28;20765;-88
2022/01/02 08:06:23;;;;;;;;;;;17.30;65.80;;;;;;5013675;28;19910;-89
2022/01/02 08:08:48;;;;;;;;;;;17.30;65.80;;;;;;5015394;28;20005;-88
2022/01/02 08:11:16;;;;;;;;;;;17.30;66.00;;;;;;5013315;28;19910;-88
2022/01/02 08:13:42;;;;;;;;;;;17.30;65.80;;;;;;5015012;28;20416;-88
2022/01/02 08:16:08;;;;;;;;;;;17.30;65.90;;;;;;5014489;28;19913;-88
2022/01/02 08:18:34;;;;;;;;;;;17.30;65.90;;;;;;5012875;28;19921;-88
2022/01/02 08:21:02;;;;;;;;;;;17.30;65.90;;;;;;5020562;28;19956;-95
2022/01/02 08:23:28;;;;;;;;;;;17.30;65.90;;;;;;5024863;28;19921;-96
2022/01/02 08:25:53;;;;;;;;;;;17.30;65.90;;;;;;5022205;28;19960;-96
2022/01/02 08:28:21;;;;;;;;;;;17.30;66.00;;;;;;5028374;28;19936;-96
2022/01/02 08:30:47;;;;;;;;;;;17.30;66.00;;;;;;5026555;28;19929;-96
2022/01/02 08:33:13;;;;;;;;;;;17.30;66.00;;;;;;5025207;28;19917;-96
2022/01/02 08:35:39;;;;;;;;;;;17.30;66.00;;;;;;5027243;28;19925;-96
2022/01/02 08:38:04;;;;;;;;;;;17.40;66.10;;;;;;5025689;28;19910;-96
2022/01/02 08:40:30;;;;;;;;;;;17.40;65.90;;;;;;5012035;28;19921;-96
2022/01/02 08:42:56;;;;;;;;;;;17.40;65.80;;;;;;5020962;28;19914;-95
2022/01/02 08:45:23;;;;;;;;;;;17.40;65.80;;;;;;5006403;28;19924;-95
2022/01/02 08:47:49;;;;;;;;;;;17.40;65.70;;;;;;5014056;28;19909;-96
2022/01/02 08:50:21;;;;;;;;;;;17.40;65.70;;;;;;5009653;28;19924;-96
2022/01/02 08:52:47;;;;;;;;;;;17.50;65.70;;;;;;5018020;28;19928;-95
2022/01/02 08:55:13;;;;;;;;;;;17.40;65.80;;;;;;5018522;28;19905;-96
2022/01/02 08:57:39;;;;;;;;;;;17.50;66.00;;;;;;5032115;28;19912;-96
2022/01/02 09:00:08;;;;;;;;;;;17.50;65.90;;;;;;5023541;28;19918;-95
2022/01/02 09:02:40;;;;;;;;;;;17.60;66.00;;;;;;5010366;28;19914;-96
2022/01/02 09:05:06;;;;;;;;;;;17.70;65.90;;;;;;5019438;28;20158;-94
2022/01/02 09:07:32;;;;;;;;;;;17.70;66.00;;;;;;5027037;28;19948;-94
2022/01/02 09:09:58;;;;;;;;;;;17.80;65.80;;;;;;5020246;28;19909;-95
2022/01/02 09:12:23;;;;;;;;;;;17.80;65.80;;;;;;5008251;28;19953;-94
2022/01/02 09:14:49;;;;;;;;;;;17.90;65.70;;;;;;5018142;28;19914;-95
2022/01/02 09:17:14;;;;;;;;;;;17.80;65.50;;;;;;5008588;28;19929;-95
2022/01/02 09:19:40;;;;;;;;;;;17.80;65.10;;;;;;5022621;28;19943;-95
2022/01/02 09:22:05;;;;;;;;;;;17.80;65.00;;;;;;5024918;28;19918;-95
2022/01/02 09:24:31;;;;;;;;;;;17.90;64.80;;;;;;5020578;28;19916;-94
2022/01/02 09:26:58;;;;;;;;;;;18.00;64.90;;;;;;5015323;28;19914;-96
2022/01/02 09:29:24;;;;;;;;;;;18.00;64.90;;;;;;5026328;28;20600;-95
2022/01/02 09:31:51;;;;;;;;;;;18.00;64.50;;;;;;5008015;28;19929;-93
2022/01/02 09:34:17;;;;;;;;;;;18.10;64.10;;;;;;5021034;28;20396;-96
2022/01/02 09:36:43;;;;;;;;;;;18.10;64.50;;;;;;5018857;28;20011;-95
2022/01/02 09:39:09;;;;;;;;;;;18.00;64.10;;;;;;5022864;28;20328;-94
2022/01/02 09:41:35;;;;;;;;;;;17.90;63.80;;;;;;5019457;28;19910;-96
2022/01/02 09:44:04;;;;;;;;;;;17.80;64.10;;;;;;5000508;28;19914;-96
2022/01/02 10:04:36;;;;;;;;;;;18.00;64.00;;;;;;5569132;23;20312;-89
2022/01/02 10:51:02;;;;;;;;;;;19.20;62.40;;;;;;4920106;23;19946;-91
2022/01/02 10:56:01;;;;;;;;;;;19.10;61.70;;;;;;4799239;23;19934;-91
2022/01/02 10:58:34;;;;;;;;;;;19.20;62.10;;;;;;4959808;28;19918;-91
2022/01/02 11:01:02;;;;;;;;;;;19.20;61.80;;;;;;4960806;28;20298;-92
2022/01/02 11:03:29;;;;;;;;;;;19.30;61.90;;;;;;4970188;28;19921;-90
2022/01/02 11:05:59;;;;;;;;;;;19.30;62.10;;;;;;4972258;28;19929;-91
2022/01/02 11:08:26;;;;;;;;;;;19.40;61.70;;;;;;4955640;29;19915;-90
2022/01/02 11:10:56;;;;;;;;;;;19.50;61.40;;;;;;4954733;29;19974;-92
2022/01/02 11:13:25;;;;;;;;;;;19.50;61.40;;;;;;4965027;28;19926;-91
2022/01/02 11:15:53;;;;;;;;;;;19.50;61.40;;;;;;4969358;28;20029;-91
2022/01/02 11:18:21;;;;;;;;;;;19.50;61.50;;;;;;4977844;28;19914;-91
2022/01/02 11:20:47;;;;;;;;;;;19.50;61.50;;;;;;4970269;28;19922;-91
2022/01/02 11:23:17;;;;;;;;;;;19.40;61.40;;;;;;4964916;28;19922;-92
2022/01/02 11:26:06;;;;;;;;;;;19.30;61.20;;;;;;4974466;28;19922;-91
2022/01/02 11:28:47;;;;;;;;;;;19.10;61.00;;;;;;5121875;23;19926;-91
2022/01/02 11:31:28;;;;;;;;;;;18.70;61.60;;;;;;4992423;23;19954;-92
2022/01/02 11:33:54;;;;;;;;;;;18.40;61.90;;;;;;4977481;28;19910;-90
2022/01/02 11:36:26;;;;;;;;;;;18.10;62.30;;;;;;4987335;23;19933;-90
2022/01/02 11:38:58;;;;;;;;;;;18.00;62.60;;;;;;4980077;23;19965;-90
2022/01/02 11:41:42;;;;;;;;;;;17.90;63.00;;;;;;4957385;28;19925;-90
2022/01/02 11:44:13;;;;;;;;;;;17.90;63.40;;;;;;4943047;29;20423;-90
2022/01/02 11:49:17;;;;;;;;;;;18.10;63.90;;;;;;5015608;23;19954;-90
2022/01/02 11:51:49;;;;;;;;;;;18.20;64.00;;;;;;4984001;28;19917;-91
2022/01/02 11:56:57;;;;;;;;;;;18.40;63.80;;;;;;4982936;28;19921;-90
2022/01/02 11:59:38;;;;;;;;;;;18.40;63.60;;;;;;4969723;23;19934;-90
2022/01/02 12:02:09;;;;;;;;;;;18.50;63.20;;;;;;4967479;28;19981;-90
2022/01/02 12:07:41;;;;;;;;;;;18.40;62.60;;;;;;4969260;28;19969;-90
2022/01/02 12:25:32;;;;;;;;;;;18.10;62.70;;;;;;4983417;23;19927;-94
2022/01/02 12:27:58;;;;;;;;;;;18.10;62.70;;;;;;4978683;28;19961;-94
2022/01/02 12:30:24;;;;;;;;;;;18.10;62.60;;;;;;4977165;28;19917;-92
2022/01/02 12:32:50;;;;;;;;;;;18.10;62.60;;;;;;4980320;28;19910;-93
2022/01/02 12:35:16;;;;;;;;;;;18.20;62.40;;;;;;4981716;28;19922;-93
2022/01/02 12:37:41;;;;;;;;;;;18.20;62.20;;;;;;4996418;28;20657;-93
2022/01/02 12:40:16;;;;;;;;;;;18.40;62.30;;;;;;4979736;28;19922;-94
2022/01/02 12:42:42;;;;;;;;;;;18.50;62.50;;;;;;4983052;28;20382;-96
2022/01/02 12:45:08;;;;;;;;;;;18.60;62.10;;;;;;4986320;28;19981;-94
2022/01/02 12:47:34;;;;;;;;;;;18.70;62.50;;;;;;4987543;28;20031;-92
2022/01/02 12:49:59;;;;;;;;;;;18.80;61.90;;;;;;4991674;28;19921;-93
2022/01/02 12:52:25;;;;;;;;;;;18.90;61.70;;;;;;4992578;28;19914;-92
2022/01/02 12:54:51;;;;;;;;;;;19.00;60.90;;;;;;4990265;28;20378;-93
2022/01/02 12:57:17;;;;;;;;;;;19.00;61.50;;;;;;4987788;28;19909;-93
2022/01/02 12:59:44;;;;;;;;;;;19.00;61.20;;;;;;4997771;28;19933;-93
2022/01/02 13:02:10;;;;;;;;;;;19.10;61.40;;;;;;4980883;28;19956;-94
2022/01/02 13:04:37;;;;;;;;;;;19.10;62.00;;;;;;4984755;28;19914;-88
2022/01/02 13:07:04;;;;;;;;;;;19.10;61.10;;;;;;4980045;28;19937;-88
2022/01/02 13:09:36;;;;;;;;;;;19.10;60.70;;;;;;4976512;28;19918;-89
2022/01/02 13:12:03;;;;;;;;;;;19.10;61.00;;;;;;4974849;28;19950;-89
2022/01/02 13:14:29;;;;;;;;;;;19.00;60.10;;;;;;4992318;28;20382;-89
2022/01/02 13:16:54;;;;;;;;;;;19.10;60.50;;;;;;4977340;28;19918;-89
2022/01/02 13:19:20;;;;;;;;;;;19.10;60.80;;;;;;4990713;28;19914;-90
2022/01/02 13:21:46;;;;;;;;;;;19.10;60.70;;;;;;4981170;28;20024;-90
2022/01/02 13:24:25;;;;;;;;;;;19.00;60.50;;;;;;4992425;28;20388;-89
2022/01/02 13:26:51;;;;;;;;;;;19.00;60.50;;;;;;4983237;28;19942;-89
2022/01/02 13:29:22;;;;;;;;;;;18.90;60.60;;;;;;4996940;28;19910;-89
2022/01/02 13:31:52;;;;;;;;;;;18.90;60.50;;;;;;4989388;28;20333;-89
2022/01/02 13:34:24;;;;;;;;;;;18.80;60.80;;;;;;4975652;28;19942;-89
2022/01/02 13:36:56;;;;;;;;;;;18.80;60.40;;;;;;4962339;28;19941;-89
2022/01/02 13:39:41;;;;;;;;;;;18.80;60.70;;;;;;4976527;28;19964;-88
2022/01/02 13:42:07;;;;;;;;;;;18.80;60.70;;;;;;4981310;28;20382;-88
2022/01/02 13:44:43;;;;;;;;;;;18.80;60.30;;;;;;4997510;28;19914;-88
2022/01/02 13:47:09;;;;;;;;;;;18.80;60.30;;;;;;4994032;28;20405;-88
2022/01/02 13:49:42;;;;;;;;;;;18.70;60.20;;;;;;4978827;28;20677;-89
2022/01/02 13:52:07;;;;;;;;;;;18.70;59.70;;;;;;4978259;28;19938;-89
2022/01/02 13:54:33;;;;;;;;;;;18.70;60.40;;;;;;4995363;28;19910;-89
2022/01/02 13:56:58;;;;;;;;;;;18.60;60.40;;;;;;4995831;28;20404;-88
2022/01/02 13:59:25;;;;;;;;;;;18.60;60.40;;;;;;4980969;28;19910;-88
2022/01/02 14:01:50;;;;;;;;;;;18.60;60.70;;;;;;4978388;28;19980;-88
2022/01/02 14:04:17;;;;;;;;;;;18.60;60.10;;;;;;4994879;28;19918;-89
2022/01/02 14:06:42;;;;;;;;;;;18.60;60.70;;;;;;4979191;28;20342;-90
2022/01/02 14:09:09;;;;;;;;;;;18.60;60.60;;;;;;4970267;28;19925;-88
2022/01/02 14:11:35;;;;;;;;;;;18.60;61.10;;;;;;4993602;28;20370;-88
2022/01/02 14:14:10;;;;;;;;;;;18.60;61.00;;;;;;4993831;28;19925;-88
2022/01/02 14:16:59;;;;;;;;;;;18.60;61.00;;;;;;4993307;28;19918;-88
2022/01/02 14:19:25;;;;;;;;;;;18.60;60.30;;;;;;4994213;28;19969;-88
2022/01/02 14:21:51;;;;;;;;;;;18.60;60.60;;;;;;4974672;28;19910;-89
2022/01/02 14:24:16;;;;;;;;;;;18.70;60.70;;;;;;4978636;28;19973;-89
2022/01/02 14:26:42;;;;;;;;;;;18.70;60.50;;;;;;4978664;28;19954;-88
2022/01/02 14:29:07;;;;;;;;;;;18.70;60.10;;;;;;4979237;28;19915;-88
2022/01/02 14:31:33;;;;;;;;;;;18.70;60.10;;;;;;4993423;28;19969;-88
2022/01/02 14:33:59;;;;;;;;;;;18.70;60.10;;;;;;4993453;28;19917;-88
2022/01/02 14:36:24;;;;;;;;;;;18.70;60.20;;;;;;4993734;28;19925;-88
2022/01/02 14:38:50;;;;;;;;;;;18.70;59.60;;;;;;4977546;28;20001;-88
2022/01/02 14:41:17;;;;;;;;;;;18.70;59.60;;;;;;4978045;28;19926;-88
2022/01/02 14:43:45;;;;;;;;;;;18.70;59.50;;;;;;4976924;28;19918;-88
2022/01/02 14:46:11;;;;;;;;;;;18.70;59.80;;;;;;4977140;28;19921;-88
2022/01/02 14:48:36;;;;;;;;;;;18.70;59.10;;;;;;4993310;28;19911;-88
2022/01/02 14:51:02;;;;;;;;;;;18.70;59.70;;;;;;4993446;28;19919;-88
2022/01/02 14:53:28;;;;;;;;;;;18.70;59.90;;;;;;4978816;28;20371;-89
2022/01/02 14:55:54;;;;;;;;;;;18.80;59.90;;;;;;4993139;28;19918;-88
2022/01/02 14:58:19;;;;;;;;;;;18.80;60.30;;;;;;4993426;28;19961;-88
2022/01/02 15:00:45;;;;;;;;;;;18.80;60.50;;;;;;4993420;28;20366;-89
2022/01/02 15:03:10;;;;;;;;;;;18.80;60.50;;;;;;4978730;28;20337;-88
2022/01/02 15:05:36;;;;;;;;;;;18.80;60.00;;;;;;4977105;28;20033;-88
2022/01/02 15:08:02;;;;;;;;;;;18.80;60.30;;;;;;4977966;28;20281;-87
2022/01/02 15:10:29;;;;;;;;;;;18.80;59.60;;;;;;4993121;28;20022;-88
2022/01/02 15:12:55;;;;;;;;;;;18.80;59.90;;;;;;4977330;28;19983;-88
2022/01/02 15:15:21;;;;;;;;;;;18.80;60.30;;;;;;4978182;28;19918;-89
2022/01/02 15:17:47;;;;;;;;;;;18.70;59.50;;;;;;4976600;28;20013;-88
2022/01/02 15:20:12;;;;;;;;;;;18.70;59.20;;;;;;4975996;28;19965;-88
2022/01/02 15:22:37;;;;;;;;;;;18.70;59.80;;;;;;4978004;28;19921;-89
2022/01/02 15:25:03;;;;;;;;;;;18.70;60.30;;;;;;4993705;28;19946;-88
2022/01/02 15:27:30;;;;;;;;;;;18.70;60.20;;;;;;4992904;28;19914;-89
2022/01/02 15:29:56;;;;;;;;;;;18.70;59.60;;;;;;4976935;28;19922;-89
2022/01/02 15:32:21;;;;;;;;;;;18.70;60.00;;;;;;4992854;28;20053;-89
2022/01/02 15:34:48;;;;;;;;;;;18.70;60.40;;;;;;4993360;28;19914;-89
2022/01/02 15:37:14;;;;;;;;;;;18.70;60.00;;;;;;4978533;28;19991;-89
2022/01/02 15:39:39;;;;;;;;;;;18.70;59.80;;;;;;4995387;28;19914;-89
2022/01/02 15:42:05;;;;;;;;;;;18.70;59.30;;;;;;4976045;28;19914;-90
2022/01/02 15:44:30;;;;;;;;;;;18.60;59.50;;;;;;4976398;28;19918;-89